sensor_id;sensor_type;location;lat;lon;timestamp;P1;durP1;ratioP1;P2;durP2;ratioP2
52650;SDS011;38537;47.226;39.702;2023-03-01T00:01:22;29.55;;;19.30;;
52650;SDS011;38537;47.226;39.702;2023-03-01T00:03:53;29.13;;;18.08;;
52650;SDS011;38537;47.226;39.702;2023-03-01T00:06:22;26.27;;;17.80;;
52650;SDS011;38537;47.226;39.702;2023-03-01T00:08:50;23.77;;;17.75;;
52650;SDS011;38537;47.226;39.702;2023-03-01T00:11:19;21.92;;;15.73;;
52650;SDS011;38537;47.226;39.702;2023-03-01T00:13:49;25.80;;;17.05;;
52650;SDS011;38537;47.226;39.702;2023-03-01T00:16:25;21.85;;;16.08;;
52650;SDS011;38537;47.226;39.702;2023-03-01T00:18:56;21.45;;;15.27;;
52650;SDS011;38537;47.226;39.702;2023-03-01T00:21:24;23.85;;;16.67;;
52650;SDS011;38537;47.226;39.702;2023-03-01T00:23:53;23.52;;;15.20;;
52650;SDS011;38537;47.226;39.702;2023-03-01T00:26:22;20.63;;;14.80;;
52650;SDS011;38537;47.226;39.702;2023-03-01T00:28:50;24.35;;;15.95;;
52650;SDS011;38537;47.226;39.702;2023-03-01T00:31:19;22.67;;;16.75;;
52650;SDS011;38537;47.226;39.702;2023-03-01T00:33:48;22.77;;;15.60;;
52650;SDS011;38537;47.226;39.702;2023-03-01T00:36:15;26.65;;;17.02;;
52650;SDS011;38537;47.226;39.702;2023-03-01T00:38:43;24.17;;;16.23;;
52650;SDS011;38537;47.226;39.702;2023-03-01T00:41:12;21.15;;;14.88;;
52650;SDS011;38537;47.226;39.702;2023-03-01T00:43:42;24.23;;;16.65;;
52650;SDS011;38537;47.226;39.702;2023-03-01T00:46:14;28.48;;;18.30;;
52650;SDS011;38537;47.226;39.702;2023-03-01T00:48:45;26.98;;;17.73;;
52650;SDS011;38537;47.226;39.702;2023-03-01T00:51:16;26.08;;;17.15;;
52650;SDS011;38537;47.226;39.702;2023-03-01T00:53:58;26.20;;;17.23;;
52650;SDS011;38537;47.226;39.702;2023-03-01T00:56:28;24.33;;;15.98;;
52650;SDS011;38537;47.226;39.702;2023-03-01T00:58:59;23.58;;;16.38;;
52650;SDS011;38537;47.226;39.702;2023-03-01T01:01:27;24.52;;;16.60;;
52650;SDS011;38537;47.226;39.702;2023-03-01T01:04:03;24.52;;;16.63;;
52650;SDS011;38537;47.226;39.702;2023-03-01T01:06:33;21.98;;;16.17;;
52650;SDS011;38537;47.226;39.702;2023-03-01T01:09:13;24.52;;;15.23;;
52650;SDS011;38537;47.226;39.702;2023-03-01T01:11:47;25.60;;;15.15;;
52650;SDS011;38537;47.226;39.702;2023-03-01T01:14:16;23.48;;;15.65;;
52650;SDS011;38537;47.226;39.702;2023-03-01T01:16:44;22.25;;;14.70;;
52650;SDS011;38537;47.226;39.702;2023-03-01T01:19:12;20.73;;;14.93;;
52650;SDS011;38537;47.226;39.702;2023-03-01T01:21:40;23.15;;;15.18;;
52650;SDS011;38537;47.226;39.702;2023-03-01T01:24:10;24.35;;;15.27;;
52650;SDS011;38537;47.226;39.702;2023-03-01T01:26:38;22.95;;;15.10;;
52650;SDS011;38537;47.226;39.702;2023-03-01T01:29:06;26.05;;;16.13;;
52650;SDS011;38537;47.226;39.702;2023-03-01T01:31:34;20.38;;;14.82;;
52650;SDS011;38537;47.226;39.702;2023-03-01T01:34:03;22.95;;;15.60;;
52650;SDS011;38537;47.226;39.702;2023-03-01T01:36:33;24.08;;;15.27;;
52650;SDS011;38537;47.226;39.702;2023-03-01T01:39:01;25.33;;;16.00;;
52650;SDS011;38537;47.226;39.702;2023-03-01T01:41:29;22.08;;;15.57;;
52650;SDS011;38537;47.226;39.702;2023-03-01T01:52:24;25.02;;;16.65;;
52650;SDS011;38537;47.226;39.702;2023-03-01T01:55:04;20.92;;;14.48;;
52650;SDS011;38537;47.226;39.702;2023-03-01T01:57:36;22.23;;;15.05;;
52650;SDS011;38537;47.226;39.702;2023-03-01T02:00:15;22.45;;;14.95;;
52650;SDS011;38537;47.226;39.702;2023-03-01T02:02:45;19.25;;;13.07;;
52650;SDS011;38537;47.226;39.702;2023-03-01T02:08:04;18.38;;;13.57;;
52650;SDS011;38537;47.226;39.702;2023-03-01T02:10:33;20.92;;;14.43;;
52650;SDS011;38537;47.226;39.702;2023-03-01T02:13:02;21.02;;;14.32;;
52650;SDS011;38537;47.226;39.702;2023-03-01T02:15:34;19.00;;;13.52;;
52650;SDS011;38537;47.226;39.702;2023-03-01T02:18:02;19.73;;;13.40;;
52650;SDS011;38537;47.226;39.702;2023-03-01T02:23:39;17.85;;;14.23;;
52650;SDS011;38537;47.226;39.702;2023-03-01T02:28:58;21.33;;;15.30;;
52650;SDS011;38537;47.226;39.702;2023-03-01T02:31:26;20.63;;;15.45;;
52650;SDS011;38537;47.226;39.702;2023-03-01T02:34:17;20.20;;;14.75;;
52650;SDS011;38537;47.226;39.702;2023-03-01T02:36:48;23.55;;;14.85;;
52650;SDS011;38537;47.226;39.702;2023-03-01T02:39:21;22.92;;;15.35;;
52650;SDS011;38537;47.226;39.702;2023-03-01T02:41:52;23.48;;;16.02;;
52650;SDS011;38537;47.226;39.702;2023-03-01T02:44:22;19.45;;;14.48;;
52650;SDS011;38537;47.226;39.702;2023-03-01T02:46:50;21.08;;;13.00;;
52650;SDS011;38537;47.226;39.702;2023-03-01T02:49:26;15.98;;;11.73;;
52650;SDS011;38537;47.226;39.702;2023-03-01T02:52:05;15.63;;;11.80;;
52650;SDS011;38537;47.226;39.702;2023-03-01T02:54:42;15.68;;;11.02;;
52650;SDS011;38537;47.226;39.702;2023-03-01T02:57:17;15.73;;;11.57;;
52650;SDS011;38537;47.226;39.702;2023-03-01T02:59:45;15.52;;;10.82;;
52650;SDS011;38537;47.226;39.702;2023-03-01T03:02:21;14.73;;;10.65;;
52650;SDS011;38537;47.226;39.702;2023-03-01T03:05:17;15.05;;;10.93;;
52650;SDS011;38537;47.226;39.702;2023-03-01T03:07:49;13.63;;;10.85;;
52650;SDS011;38537;47.226;39.702;2023-03-01T03:10:19;16.27;;;11.20;;
52650;SDS011;38537;47.226;39.702;2023-03-01T03:12:53;14.77;;;10.85;;
52650;SDS011;38537;47.226;39.702;2023-03-01T03:15:24;13.13;;;10.18;;
52650;SDS011;38537;47.226;39.702;2023-03-01T03:17:54;13.23;;;9.98;;
52650;SDS011;38537;47.226;39.702;2023-03-01T03:20:23;12.40;;;9.35;;
52650;SDS011;38537;47.226;39.702;2023-03-01T03:22:53;13.25;;;10.30;;
52650;SDS011;38537;47.226;39.702;2023-03-01T03:25:21;12.23;;;9.63;;
52650;SDS011;38537;47.226;39.702;2023-03-01T03:27:50;12.30;;;9.48;;
52650;SDS011;38537;47.226;39.702;2023-03-01T03:30:25;14.50;;;10.50;;
52650;SDS011;38537;47.226;39.702;2023-03-01T03:32:55;12.93;;;9.88;;
52650;SDS011;38537;47.226;39.702;2023-03-01T03:35:24;13.18;;;9.75;;
52650;SDS011;38537;47.226;39.702;2023-03-01T03:38:01;14.10;;;9.75;;
52650;SDS011;38537;47.226;39.702;2023-03-01T03:40:37;11.77;;;9.13;;
52650;SDS011;38537;47.226;39.702;2023-03-01T03:43:29;15.25;;;9.25;;
52650;SDS011;38537;47.226;39.702;2023-03-01T03:45:56;13.15;;;8.32;;
52650;SDS011;38537;47.226;39.702;2023-03-01T03:48:26;12.38;;;8.52;;
52650;SDS011;38537;47.226;39.702;2023-03-01T03:50:56;9.77;;;8.00;;
52650;SDS011;38537;47.226;39.702;2023-03-01T03:53:27;9.75;;;7.35;;
52650;SDS011;38537;47.226;39.702;2023-03-01T03:55:59;11.27;;;7.82;;
52650;SDS011;38537;47.226;39.702;2023-03-01T03:58:26;10.35;;;7.53;;
52650;SDS011;38537;47.226;39.702;2023-03-01T04:00:55;10.38;;;8.13;;
52650;SDS011;38537;47.226;39.702;2023-03-01T04:03:24;12.15;;;8.77;;
52650;SDS011;38537;47.226;39.702;2023-03-01T04:05:54;10.48;;;8.25;;
52650;SDS011;38537;47.226;39.702;2023-03-01T04:08:24;12.15;;;8.85;;
52650;SDS011;38537;47.226;39.702;2023-03-01T04:10:55;12.43;;;9.32;;
52650;SDS011;38537;47.226;39.702;2023-03-01T04:13:27;10.95;;;8.98;;
52650;SDS011;38537;47.226;39.702;2023-03-01T04:15:54;14.35;;;9.20;;
52650;SDS011;38537;47.226;39.702;2023-03-01T04:18:22;12.52;;;9.43;;
52650;SDS011;38537;47.226;39.702;2023-03-01T04:20:52;12.20;;;9.85;;
52650;SDS011;38537;47.226;39.702;2023-03-01T04:23:22;14.98;;;9.80;;
52650;SDS011;38537;47.226;39.702;2023-03-01T04:25:50;14.80;;;10.48;;
52650;SDS011;38537;47.226;39.702;2023-03-01T04:28:32;13.75;;;9.77;;
52650;SDS011;38537;47.226;39.702;2023-03-01T04:31:05;16.00;;;10.35;;
52650;SDS011;38537;47.226;39.702;2023-03-01T04:33:54;16.80;;;10.35;;
52650;SDS011;38537;47.226;39.702;2023-03-01T04:36:23;13.27;;;10.38;;
52650;SDS011;38537;47.226;39.702;2023-03-01T04:38:52;15.25;;;11.13;;
52650;SDS011;38537;47.226;39.702;2023-03-01T04:41:21;16.73;;;10.75;;
52650;SDS011;38537;47.226;39.702;2023-03-01T04:43:49;15.63;;;10.43;;
52650;SDS011;38537;47.226;39.702;2023-03-01T04:46:18;15.20;;;10.77;;
52650;SDS011;38537;47.226;39.702;2023-03-01T04:48:47;13.90;;;10.27;;
52650;SDS011;38537;47.226;39.702;2023-03-01T04:51:14;15.02;;;10.32;;
52650;SDS011;38537;47.226;39.702;2023-03-01T04:53:42;13.55;;;10.40;;
52650;SDS011;38537;47.226;39.702;2023-03-01T04:56:11;11.57;;;8.80;;
52650;SDS011;38537;47.226;39.702;2023-03-01T04:58:41;13.40;;;9.52;;
52650;SDS011;38537;47.226;39.702;2023-03-01T05:01:13;14.68;;;10.10;;
52650;SDS011;38537;47.226;39.702;2023-03-01T05:03:43;14.30;;;9.52;;
52650;SDS011;38537;47.226;39.702;2023-03-01T05:06:12;16.08;;;10.40;;
52650;SDS011;38537;47.226;39.702;2023-03-01T05:08:40;14.15;;;10.02;;
52650;SDS011;38537;47.226;39.702;2023-03-01T05:11:08;13.45;;;10.48;;
52650;SDS011;38537;47.226;39.702;2023-03-01T05:13:37;17.55;;;9.75;;
52650;SDS011;38537;47.226;39.702;2023-03-01T05:16:05;15.02;;;10.32;;
52650;SDS011;38537;47.226;39.702;2023-03-01T05:18:38;13.77;;;10.23;;
52650;SDS011;38537;47.226;39.702;2023-03-01T05:21:07;15.60;;;10.15;;
52650;SDS011;38537;47.226;39.702;2023-03-01T05:23:36;12.60;;;10.15;;
52650;SDS011;38537;47.226;39.702;2023-03-01T05:26:05;16.13;;;11.02;;
52650;SDS011;38537;47.226;39.702;2023-03-01T05:28:47;13.50;;;11.13;;
52650;SDS011;38537;47.226;39.702;2023-03-01T05:31:15;15.82;;;11.70;;
52650;SDS011;38537;47.226;39.702;2023-03-01T05:33:42;14.43;;;11.65;;
52650;SDS011;38537;47.226;39.702;2023-03-01T05:36:10;21.63;;;12.60;;
52650;SDS011;38537;47.226;39.702;2023-03-01T05:38:37;16.65;;;12.48;;
52650;SDS011;38537;47.226;39.702;2023-03-01T05:41:05;16.55;;;11.60;;
52650;SDS011;38537;47.226;39.702;2023-03-01T05:43:39;18.65;;;12.68;;
52650;SDS011;38537;47.226;39.702;2023-03-01T05:46:10;16.95;;;12.60;;
52650;SDS011;38537;47.226;39.702;2023-03-01T05:48:39;19.38;;;12.73;;
52650;SDS011;38537;47.226;39.702;2023-03-01T05:51:06;19.73;;;12.70;;
52650;SDS011;38537;47.226;39.702;2023-03-01T05:53:33;17.48;;;11.98;;
52650;SDS011;38537;47.226;39.702;2023-03-01T05:56:02;14.85;;;10.70;;
52650;SDS011;38537;47.226;39.702;2023-03-01T05:58:32;15.13;;;10.85;;
52650;SDS011;38537;47.226;39.702;2023-03-01T06:00:59;14.20;;;10.65;;
52650;SDS011;38537;47.226;39.702;2023-03-01T06:03:26;15.48;;;10.93;;
52650;SDS011;38537;47.226;39.702;2023-03-01T06:05:57;13.27;;;10.00;;
52650;SDS011;38537;47.226;39.702;2023-03-01T06:08:25;13.38;;;9.48;;
52650;SDS011;38537;47.226;39.702;2023-03-01T06:10:54;16.98;;;10.18;;
52650;SDS011;38537;47.226;39.702;2023-03-01T06:13:21;14.02;;;10.00;;
52650;SDS011;38537;47.226;39.702;2023-03-01T06:15:50;13.32;;;9.40;;
52650;SDS011;38537;47.226;39.702;2023-03-01T06:18:18;14.77;;;10.45;;
52650;SDS011;38537;47.226;39.702;2023-03-01T06:20:51;13.55;;;9.52;;
52650;SDS011;38537;47.226;39.702;2023-03-01T06:23:20;14.50;;;10.23;;
52650;SDS011;38537;47.226;39.702;2023-03-01T06:25:47;16.10;;;11.68;;
52650;SDS011;38537;47.226;39.702;2023-03-01T06:28:14;15.80;;;10.30;;
52650;SDS011;38537;47.226;39.702;2023-03-01T06:30:42;14.25;;;10.48;;
52650;SDS011;38537;47.226;39.702;2023-03-01T06:33:12;14.30;;;10.23;;
52650;SDS011;38537;47.226;39.702;2023-03-01T06:35:39;13.65;;;10.13;;
52650;SDS011;38537;47.226;39.702;2023-03-01T06:38:07;17.08;;;11.63;;
52650;SDS011;38537;47.226;39.702;2023-03-01T06:40:34;16.70;;;10.50;;
52650;SDS011;38537;47.226;39.702;2023-03-01T06:43:02;14.02;;;10.10;;
52650;SDS011;38537;47.226;39.702;2023-03-01T06:45:29;17.13;;;12.20;;
52650;SDS011;38537;47.226;39.702;2023-03-01T06:48:06;14.85;;;10.77;;
52650;SDS011;38537;47.226;39.702;2023-03-01T06:50:34;16.08;;;12.20;;
52650;SDS011;38537;47.226;39.702;2023-03-01T06:53:03;17.95;;;12.68;;
52650;SDS011;38537;47.226;39.702;2023-03-01T06:55:33;18.02;;;12.80;;
52650;SDS011;38537;47.226;39.702;2023-03-01T06:58:01;20.52;;;12.50;;
52650;SDS011;38537;47.226;39.702;2023-03-01T07:00:30;21.45;;;13.95;;
52650;SDS011;38537;47.226;39.702;2023-03-01T07:02:58;19.35;;;13.52;;
52650;SDS011;38537;47.226;39.702;2023-03-01T07:05:27;18.98;;;12.90;;
52650;SDS011;38537;47.226;39.702;2023-03-01T07:07:54;18.60;;;12.50;;
52650;SDS011;38537;47.226;39.702;2023-03-01T07:10:23;19.73;;;13.75;;
52650;SDS011;38537;47.226;39.702;2023-03-01T07:12:50;20.88;;;14.30;;
52650;SDS011;38537;47.226;39.702;2023-03-01T07:15:21;19.08;;;14.05;;
52650;SDS011;38537;47.226;39.702;2023-03-01T07:17:49;22.92;;;14.48;;
52650;SDS011;38537;47.226;39.702;2023-03-01T07:20:18;21.98;;;13.82;;
52650;SDS011;38537;47.226;39.702;2023-03-01T07:22:49;20.35;;;15.02;;
52650;SDS011;38537;47.226;39.702;2023-03-01T07:25:16;22.52;;;14.63;;
52650;SDS011;38537;47.226;39.702;2023-03-01T07:27:43;21.23;;;14.98;;
52650;SDS011;38537;47.226;39.702;2023-03-01T07:30:15;21.50;;;15.57;;
52650;SDS011;38537;47.226;39.702;2023-03-01T07:32:42;23.98;;;15.77;;
52650;SDS011;38537;47.226;39.702;2023-03-01T07:35:10;21.55;;;15.90;;
52650;SDS011;38537;47.226;39.702;2023-03-01T07:37:37;23.27;;;15.27;;
52650;SDS011;38537;47.226;39.702;2023-03-01T07:40:05;20.55;;;14.50;;
52650;SDS011;38537;47.226;39.702;2023-03-01T07:42:35;22.25;;;15.73;;
52650;SDS011;38537;47.226;39.702;2023-03-01T07:45:04;24.63;;;15.63;;
52650;SDS011;38537;47.226;39.702;2023-03-01T07:47:32;23.13;;;15.90;;
52650;SDS011;38537;47.226;39.702;2023-03-01T07:49:59;23.17;;;15.27;;
52650;SDS011;38537;47.226;39.702;2023-03-01T07:52:28;20.30;;;14.75;;
52650;SDS011;38537;47.226;39.702;2023-03-01T07:54:56;23.50;;;15.45;;
52650;SDS011;38537;47.226;39.702;2023-03-01T07:57:23;21.63;;;15.18;;
52650;SDS011;38537;47.226;39.702;2023-03-01T07:59:51;26.42;;;16.17;;
52650;SDS011;38537;47.226;39.702;2023-03-01T08:02:18;20.85;;;14.35;;
52650;SDS011;38537;47.226;39.702;2023-03-01T08:04:46;23.02;;;13.35;;
52650;SDS011;38537;47.226;39.702;2023-03-01T08:07:13;19.10;;;13.80;;
52650;SDS011;38537;47.226;39.702;2023-03-01T08:09:40;20.33;;;14.30;;
52650;SDS011;38537;47.226;39.702;2023-03-01T08:12:07;22.48;;;14.25;;
52650;SDS011;38537;47.226;39.702;2023-03-01T08:14:34;26.10;;;15.95;;
52650;SDS011;38537;47.226;39.702;2023-03-01T08:17:02;21.17;;;13.57;;
52650;SDS011;38537;47.226;39.702;2023-03-01T08:19:29;21.23;;;13.93;;
52650;SDS011;38537;47.226;39.702;2023-03-01T08:21:57;22.02;;;15.10;;
52650;SDS011;38537;47.226;39.702;2023-03-01T08:24:25;18.67;;;13.68;;
52650;SDS011;38537;47.226;39.702;2023-03-01T08:26:52;26.63;;;15.50;;
52650;SDS011;38537;47.226;39.702;2023-03-01T08:29:20;26.98;;;15.77;;
52650;SDS011;38537;47.226;39.702;2023-03-01T08:31:48;24.40;;;16.25;;
52650;SDS011;38537;47.226;39.702;2023-03-01T08:34:16;22.85;;;14.55;;
52650;SDS011;38537;47.226;39.702;2023-03-01T08:36:45;25.95;;;16.73;;
52650;SDS011;38537;47.226;39.702;2023-03-01T08:39:16;24.70;;;16.13;;
52650;SDS011;38537;47.226;39.702;2023-03-01T08:41:46;24.52;;;15.93;;
52650;SDS011;38537;47.226;39.702;2023-03-01T08:44:14;26.02;;;18.02;;
52650;SDS011;38537;47.226;39.702;2023-03-01T08:46:46;28.33;;;16.55;;
52650;SDS011;38537;47.226;39.702;2023-03-01T08:49:17;25.35;;;16.67;;
52650;SDS011;38537;47.226;39.702;2023-03-01T08:51:46;25.75;;;14.18;;
52650;SDS011;38537;47.226;39.702;2023-03-01T08:54:18;22.58;;;14.20;;
52650;SDS011;38537;47.226;39.702;2023-03-01T08:56:47;25.33;;;15.95;;
52650;SDS011;38537;47.226;39.702;2023-03-01T08:59:15;23.00;;;15.43;;
52650;SDS011;38537;47.226;39.702;2023-03-01T09:01:45;24.73;;;16.27;;
52650;SDS011;38537;47.226;39.702;2023-03-01T09:04:14;25.13;;;16.27;;
52650;SDS011;38537;47.226;39.702;2023-03-01T09:06:41;22.02;;;14.93;;
52650;SDS011;38537;47.226;39.702;2023-03-01T09:09:12;25.50;;;17.02;;
52650;SDS011;38537;47.226;39.702;2023-03-01T09:11:43;20.98;;;14.38;;
52650;SDS011;38537;47.226;39.702;2023-03-01T09:14:13;22.80;;;14.73;;
52650;SDS011;38537;47.226;39.702;2023-03-01T09:16:41;20.95;;;14.00;;
52650;SDS011;38537;47.226;39.702;2023-03-01T09:19:08;23.00;;;14.25;;
52650;SDS011;38537;47.226;39.702;2023-03-01T09:21:36;24.83;;;15.02;;
52650;SDS011;38537;47.226;39.702;2023-03-01T09:24:14;26.30;;;15.45;;
52650;SDS011;38537;47.226;39.702;2023-03-01T09:26:41;23.20;;;14.60;;
52650;SDS011;38537;47.226;39.702;2023-03-01T09:29:09;22.08;;;13.65;;
52650;SDS011;38537;47.226;39.702;2023-03-01T09:31:37;26.85;;;16.67;;
52650;SDS011;38537;47.226;39.702;2023-03-01T09:34:05;22.15;;;14.15;;
52650;SDS011;38537;47.226;39.702;2023-03-01T09:36:33;23.02;;;14.57;;
52650;SDS011;38537;47.226;39.702;2023-03-01T09:39:01;23.10;;;15.32;;
52650;SDS011;38537;47.226;39.702;2023-03-01T09:46:43;24.17;;;15.10;;
52650;SDS011;38537;47.226;39.702;2023-03-01T09:49:14;21.83;;;14.30;;
52650;SDS011;38537;47.226;39.702;2023-03-01T09:51:53;20.15;;;13.45;;
52650;SDS011;38537;47.226;39.702;2023-03-01T09:54:22;23.77;;;15.23;;
52650;SDS011;38537;47.226;39.702;2023-03-01T10:04:52;20.30;;;14.18;;
52650;SDS011;38537;47.226;39.702;2023-03-01T10:07:36;19.38;;;13.57;;
52650;SDS011;38537;47.226;39.702;2023-03-01T10:12:53;23.80;;;14.27;;
52650;SDS011;38537;47.226;39.702;2023-03-01T10:15:34;22.83;;;14.45;;
52650;SDS011;38537;47.226;39.702;2023-03-01T10:18:12;27.17;;;15.07;;
52650;SDS011;38537;47.226;39.702;2023-03-01T10:20:48;22.70;;;14.13;;
52650;SDS011;38537;47.226;39.702;2023-03-01T10:23:29;20.55;;;13.75;;
52650;SDS011;38537;47.226;39.702;2023-03-01T10:28:59;28.35;;;15.45;;
52650;SDS011;38537;47.226;39.702;2023-03-01T10:31:39;22.23;;;13.65;;
52650;SDS011;38537;47.226;39.702;2023-03-01T10:34:12;22.05;;;13.88;;
52650;SDS011;38537;47.226;39.702;2023-03-01T10:36:42;21.05;;;12.73;;
52650;SDS011;38537;47.226;39.702;2023-03-01T10:39:15;18.63;;;12.98;;
52650;SDS011;38537;47.226;39.702;2023-03-01T10:41:58;19.27;;;11.90;;
52650;SDS011;38537;47.226;39.702;2023-03-01T10:44:35;17.73;;;12.20;;
52650;SDS011;38537;47.226;39.702;2023-03-01T10:47:08;20.48;;;13.20;;
52650;SDS011;38537;47.226;39.702;2023-03-01T10:49:51;23.30;;;12.85;;
52650;SDS011;38537;47.226;39.702;2023-03-01T10:52:23;18.33;;;11.75;;
52650;SDS011;38537;47.226;39.702;2023-03-01T10:54:57;15.52;;;11.45;;
52650;SDS011;38537;47.226;39.702;2023-03-01T10:57:39;16.67;;;11.68;;
52650;SDS011;38537;47.226;39.702;2023-03-01T11:00:22;19.13;;;11.75;;
52650;SDS011;38537;47.226;39.702;2023-03-01T11:05:25;17.73;;;12.00;;
52650;SDS011;38537;47.226;39.702;2023-03-01T11:07:59;22.15;;;12.48;;
52650;SDS011;38537;47.226;39.702;2023-03-01T11:10:35;21.83;;;11.85;;
52650;SDS011;38537;47.226;39.702;2023-03-01T11:15:58;19.65;;;14.18;;
52650;SDS011;38537;47.226;39.702;2023-03-01T11:18:27;17.90;;;12.23;;
52650;SDS011;38537;47.226;39.702;2023-03-01T11:21:12;17.88;;;11.77;;
52650;SDS011;38537;47.226;39.702;2023-03-01T11:23:41;16.00;;;11.65;;
52650;SDS011;38537;47.226;39.702;2023-03-01T11:26:12;24.23;;;13.35;;
52650;SDS011;38537;47.226;39.702;2023-03-01T11:28:42;18.83;;;11.60;;
52650;SDS011;38537;47.226;39.702;2023-03-01T11:31:13;23.27;;;13.77;;
52650;SDS011;38537;47.226;39.702;2023-03-01T11:34:05;23.83;;;14.20;;
52650;SDS011;38537;47.226;39.702;2023-03-01T11:36:49;29.63;;;17.60;;
52650;SDS011;38537;47.226;39.702;2023-03-01T11:42:17;23.40;;;13.68;;
52650;SDS011;38537;47.226;39.702;2023-03-01T11:44:49;19.83;;;13.38;;
52650;SDS011;38537;47.226;39.702;2023-03-01T11:47:27;22.05;;;12.95;;
52650;SDS011;38537;47.226;39.702;2023-03-01T11:50:12;26.20;;;13.95;;
52650;SDS011;38537;47.226;39.702;2023-03-01T11:58:16;20.55;;;13.50;;
52650;SDS011;38537;47.226;39.702;2023-03-01T12:25:52;16.70;;;11.85;;
52650;SDS011;38537;47.226;39.702;2023-03-01T12:36:53;15.43;;;11.60;;
52650;SDS011;38537;47.226;39.702;2023-03-01T12:39:55;19.65;;;12.52;;
52650;SDS011;38537;47.226;39.702;2023-03-01T12:50:54;18.02;;;11.55;;
52650;SDS011;38537;47.226;39.702;2023-03-01T12:53:32;17.27;;;11.45;;
52650;SDS011;38537;47.226;39.702;2023-03-01T12:56:06;16.85;;;10.98;;
52650;SDS011;38537;47.226;39.702;2023-03-01T12:58:39;15.75;;;10.10;;
52650;SDS011;38537;47.226;39.702;2023-03-01T13:06:44;13.85;;;9.70;;
52650;SDS011;38537;47.226;39.702;2023-03-01T13:17:51;15.60;;;9.02;;
52650;SDS011;38537;47.226;39.702;2023-03-01T13:20:22;14.57;;;9.73;;
52650;SDS011;38537;47.226;39.702;2023-03-01T13:23:05;15.00;;;9.20;;
52650;SDS011;38537;47.226;39.702;2023-03-01T13:37:08;17.27;;;9.55;;
52650;SDS011;38537;47.226;39.702;2023-03-01T13:39:28;12.57;;;8.25;;
52650;SDS011;38537;47.226;39.702;2023-03-01T13:41:58;12.50;;;9.07;;
52650;SDS011;38537;47.226;39.702;2023-03-01T13:44:32;10.80;;;7.97;;
52650;SDS011;38537;47.226;39.702;2023-03-01T13:49:43;11.50;;;8.70;;
52650;SDS011;38537;47.226;39.702;2023-03-01T13:54:56;12.73;;;9.00;;
52650;SDS011;38537;47.226;39.702;2023-03-01T13:57:26;10.85;;;7.60;;
52650;SDS011;38537;47.226;39.702;2023-03-01T13:59:59;12.52;;;8.38;;
52650;SDS011;38537;47.226;39.702;2023-03-01T14:02:29;11.30;;;8.60;;
52650;SDS011;38537;47.226;39.702;2023-03-01T14:04:56;11.00;;;8.10;;
52650;SDS011;38537;47.226;39.702;2023-03-01T14:07:26;13.40;;;8.68;;
52650;SDS011;38537;47.226;39.702;2023-03-01T14:09:59;13.10;;;7.78;;
52650;SDS011;38537;47.226;39.702;2023-03-01T14:20:32;14.18;;;8.45;;
52650;SDS011;38537;47.226;39.702;2023-03-01T14:23:13;12.98;;;8.13;;
52650;SDS011;38537;47.226;39.702;2023-03-01T14:28:21;12.60;;;8.60;;
52650;SDS011;38537;47.226;39.702;2023-03-01T14:30:57;11.27;;;8.15;;
52650;SDS011;38537;47.226;39.702;2023-03-01T14:36:08;13.23;;;8.52;;
52650;SDS011;38537;47.226;39.702;2023-03-01T14:38:38;13.23;;;8.65;;
52650;SDS011;38537;47.226;39.702;2023-03-01T14:43:43;12.70;;;8.68;;
52650;SDS011;38537;47.226;39.702;2023-03-01T14:46:32;14.25;;;9.13;;
52650;SDS011;38537;47.226;39.702;2023-03-01T14:49:05;12.25;;;9.32;;
52650;SDS011;38537;47.226;39.702;2023-03-01T14:51:52;15.45;;;8.88;;
52650;SDS011;38537;47.226;39.702;2023-03-01T14:54:44;12.23;;;8.23;;
52650;SDS011;38537;47.226;39.702;2023-03-01T14:57:15;13.80;;;8.95;;
52650;SDS011;38537;47.226;39.702;2023-03-01T14:59:43;13.77;;;8.70;;
52650;SDS011;38537;47.226;39.702;2023-03-01T15:02:15;10.02;;;7.43;;
52650;SDS011;38537;47.226;39.702;2023-03-01T15:04:46;14.65;;;8.65;;
52650;SDS011;38537;47.226;39.702;2023-03-01T15:07:30;16.80;;;9.10;;
52650;SDS011;38537;47.226;39.702;2023-03-01T15:10:01;12.60;;;8.82;;
52650;SDS011;38537;47.226;39.702;2023-03-01T15:15:19;13.57;;;8.88;;
52650;SDS011;38537;47.226;39.702;2023-03-01T15:17:50;13.05;;;8.25;;
52650;SDS011;38537;47.226;39.702;2023-03-01T15:20:22;13.43;;;7.97;;
52650;SDS011;38537;47.226;39.702;2023-03-01T15:22:55;13.73;;;8.25;;
52650;SDS011;38537;47.226;39.702;2023-03-01T15:25:24;12.07;;;7.85;;
52650;SDS011;38537;47.226;39.702;2023-03-01T15:27:55;14.02;;;7.95;;
52650;SDS011;38537;47.226;39.702;2023-03-01T15:30:34;11.88;;;7.05;;
52650;SDS011;38537;47.226;39.702;2023-03-01T15:33:18;12.63;;;7.70;;
52650;SDS011;38537;47.226;39.702;2023-03-01T15:35:48;10.90;;;8.15;;
52650;SDS011;38537;47.226;39.702;2023-03-01T15:40:51;12.82;;;7.90;;
52650;SDS011;38537;47.226;39.702;2023-03-01T15:43:38;14.13;;;8.63;;
52650;SDS011;38537;47.226;39.702;2023-03-01T15:46:20;16.05;;;8.13;;
52650;SDS011;38537;47.226;39.702;2023-03-01T15:48:55;18.52;;;8.40;;
52650;SDS011;38537;47.226;39.702;2023-03-01T15:51:29;14.07;;;8.32;;
52650;SDS011;38537;47.226;39.702;2023-03-01T15:53:58;17.15;;;8.43;;
52650;SDS011;38537;47.226;39.702;2023-03-01T15:56:27;23.73;;;10.82;;
52650;SDS011;38537;47.226;39.702;2023-03-01T15:58:59;22.70;;;9.57;;
52650;SDS011;38537;47.226;39.702;2023-03-01T16:01:30;19.98;;;12.07;;
52650;SDS011;38537;47.226;39.702;2023-03-01T16:03:59;17.30;;;9.40;;
52650;SDS011;38537;47.226;39.702;2023-03-01T16:06:26;18.42;;;9.35;;
52650;SDS011;38537;47.226;39.702;2023-03-01T16:08:53;20.30;;;9.30;;
52650;SDS011;38537;47.226;39.702;2023-03-01T16:11:21;16.65;;;8.98;;
52650;SDS011;38537;47.226;39.702;2023-03-01T16:13:48;17.05;;;9.05;;
52650;SDS011;38537;47.226;39.702;2023-03-01T16:16:16;16.02;;;9.25;;
52650;SDS011;38537;47.226;39.702;2023-03-01T16:18:47;16.20;;;8.60;;
52650;SDS011;38537;47.226;39.702;2023-03-01T16:21:19;19.65;;;9.57;;
52650;SDS011;38537;47.226;39.702;2023-03-01T16:23:48;20.23;;;9.60;;
52650;SDS011;38537;47.226;39.702;2023-03-01T16:26:16;26.23;;;9.63;;
52650;SDS011;38537;47.226;39.702;2023-03-01T16:28:47;15.23;;;9.25;;
52650;SDS011;38537;47.226;39.702;2023-03-01T16:31:18;19.42;;;10.05;;
52650;SDS011;38537;47.226;39.702;2023-03-01T16:33:46;20.33;;;10.27;;
52650;SDS011;38537;47.226;39.702;2023-03-01T16:36:17;16.63;;;9.55;;
52650;SDS011;38537;47.226;39.702;2023-03-01T16:38:46;15.70;;;9.55;;
52650;SDS011;38537;47.226;39.702;2023-03-01T16:41:17;17.90;;;11.10;;
52650;SDS011;38537;47.226;39.702;2023-03-01T16:43:49;19.55;;;11.00;;
52650;SDS011;38537;47.226;39.702;2023-03-01T16:46:22;21.45;;;11.32;;
52650;SDS011;38537;47.226;39.702;2023-03-01T16:48:54;23.80;;;11.68;;
52650;SDS011;38537;47.226;39.702;2023-03-01T16:51:25;25.17;;;13.02;;
52650;SDS011;38537;47.226;39.702;2023-03-01T16:53:52;24.15;;;12.40;;
52650;SDS011;38537;47.226;39.702;2023-03-01T16:56:20;19.95;;;12.00;;
52650;SDS011;38537;47.226;39.702;2023-03-01T16:58:47;21.60;;;12.38;;
52650;SDS011;38537;47.226;39.702;2023-03-01T17:01:15;21.50;;;12.38;;